sensor_id;sensor_type;location;lat;lon;timestamp;temperature;humidity
68922;DHT22;55959;51.244;5.724;2024-01-10T00:01:35;0.60;54.40
68922;DHT22;55959;51.244;5.724;2024-01-10T00:04:01;0.60;54.40
68922;DHT22;55959;51.244;5.724;2024-01-10T00:06:28;0.60;54.40
68922;DHT22;55959;51.244;5.724;2024-01-10T00:08:53;0.60;54.50
68922;DHT22;55959;51.244;5.724;2024-01-10T00:11:20;0.50;54.50
68922;DHT22;55959;51.244;5.724;2024-01-10T00:13:46;0.50;54.60
68922;DHT22;55959;51.244;5.724;2024-01-10T00:16:12;0.50;54.70
68922;DHT22;55959;51.244;5.724;2024-01-10T00:18:39;0.50;54.70
68922;DHT22;55959;51.244;5.724;2024-01-10T00:21:06;0.50;54.70
68922;DHT22;55959;51.244;5.724;2024-01-10T00:23:32;0.50;54.70
68922;DHT22;55959;51.244;5.724;2024-01-10T00:25:58;0.40;54.70
68922;DHT22;55959;51.244;5.724;2024-01-10T00:28:24;0.40;54.70
68922;DHT22;55959;51.244;5.724;2024-01-10T00:30:50;0.40;54.70
68922;DHT22;55959;51.244;5.724;2024-01-10T00:33:16;0.40;54.70
68922;DHT22;55959;51.244;5.724;2024-01-10T00:35:42;0.40;54.80
68922;DHT22;55959;51.244;5.724;2024-01-10T00:38:09;0.40;54.80
68922;DHT22;55959;51.244;5.724;2024-01-10T00:40:34;0.30;54.80
68922;DHT22;55959;51.244;5.724;2024-01-10T00:43:01;0.30;54.90
68922;DHT22;55959;51.244;5.724;2024-01-10T00:45:27;0.30;55.00
68922;DHT22;55959;51.244;5.724;2024-01-10T00:47:52;0.30;55.10
68922;DHT22;55959;51.244;5.724;2024-01-10T00:50:18;0.20;55.10
68922;DHT22;55959;51.244;5.724;2024-01-10T00:52:45;0.20;55.10
68922;DHT22;55959;51.244;5.724;2024-01-10T00:55:12;0.20;55.10
68922;DHT22;55959;51.244;5.724;2024-01-10T00:57:38;0.20;55.20
68922;DHT22;55959;51.244;5.724;2024-01-10T01:00:06;0.10;55.20
68922;DHT22;55959;51.244;5.724;2024-01-10T01:02:32;0.20;55.40
68922;DHT22;55959;51.244;5.724;2024-01-10T01:04:58;0.20;55.50
68922;DHT22;55959;51.244;5.724;2024-01-10T01:07:24;0.10;55.50
68922;DHT22;55959;51.244;5.724;2024-01-10T01:09:49;0.10;55.50
68922;DHT22;55959;51.244;5.724;2024-01-10T01:12:15;0.00;55.60
68922;DHT22;55959;51.244;5.724;2024-01-10T01:14:41;0.10;55.70
68922;DHT22;55959;51.244;5.724;2024-01-10T01:17:07;0.00;55.70
68922;DHT22;55959;51.244;5.724;2024-01-10T01:19:32;0.00;55.70
68922;DHT22;55959;51.244;5.724;2024-01-10T01:21:58;0.00;55.80
68922;DHT22;55959;51.244;5.724;2024-01-10T01:24:24;0.00;55.80
68922;DHT22;55959;51.244;5.724;2024-01-10T01:26:49;-0.10;55.90
68922;DHT22;55959;51.244;5.724;2024-01-10T01:29:16;0.00;56.00
68922;DHT22;55959;51.244;5.724;2024-01-10T01:31:44;-0.10;55.90
68922;DHT22;55959;51.244;5.724;2024-01-10T01:34:10;-0.10;56.00
68922;DHT22;55959;51.244;5.724;2024-01-10T01:36:36;-0.10;56.10
68922;DHT22;55959;51.244;5.724;2024-01-10T01:39:02;-0.10;56.10
68922;DHT22;55959;51.244;5.724;2024-01-10T01:41:28;-0.10;56.20
68922;DHT22;55959;51.244;5.724;2024-01-10T01:43:54;-0.20;56.20
68922;DHT22;55959;51.244;5.724;2024-01-10T01:46:20;-0.20;56.20
68922;DHT22;55959;51.244;5.724;2024-01-10T01:48:47;-0.20;56.40
68922;DHT22;55959;51.244;5.724;2024-01-10T01:51:14;-0.20;56.40
68922;DHT22;55959;51.244;5.724;2024-01-10T01:53:42;-0.20;56.50
68922;DHT22;55959;51.244;5.724;2024-01-10T01:56:10;-0.30;56.40
68922;DHT22;55959;51.244;5.724;2024-01-10T01:58:36;-0.30;56.50
68922;DHT22;55959;51.244;5.724;2024-01-10T02:01:03;-0.20;56.60
68922;DHT22;55959;51.244;5.724;2024-01-10T02:03:33;-0.30;56.60
68922;DHT22;55959;51.244;5.724;2024-01-10T02:06:00;-0.30;56.70
68922;DHT22;55959;51.244;5.724;2024-01-10T02:08:29;-0.30;56.70
68922;DHT22;55959;51.244;5.724;2024-01-10T02:10:58;-0.30;56.80
68922;DHT22;55959;51.244;5.724;2024-01-10T02:13:24;-0.40;56.80
68922;DHT22;55959;51.244;5.724;2024-01-10T02:15:50;-0.40;56.80
68922;DHT22;55959;51.244;5.724;2024-01-10T02:18:17;-0.40;56.90
68922;DHT22;55959;51.244;5.724;2024-01-10T02:20:43;-0.40;56.90
68922;DHT22;55959;51.244;5.724;2024-01-10T02:23:10;-0.40;57.00
68922;DHT22;55959;51.244;5.724;2024-01-10T02:25:37;-0.40;57.00
68922;DHT22;55959;51.244;5.724;2024-01-10T02:28:03;-0.50;57.00
68922;DHT22;55959;51.244;5.724;2024-01-10T02:30:30;-0.50;57.00
68922;DHT22;55959;51.244;5.724;2024-01-10T02:32:56;-0.50;57.10
68922;DHT22;55959;51.244;5.724;2024-01-10T02:35:21;-0.50;57.10
68922;DHT22;55959;51.244;5.724;2024-01-10T02:37:47;-0.50;57.20
68922;DHT22;55959;51.244;5.724;2024-01-10T02:40:17;-0.50;57.30
68922;DHT22;55959;51.244;5.724;2024-01-10T02:42:43;-0.50;57.30
68922;DHT22;55959;51.244;5.724;2024-01-10T02:45:09;-0.60;57.40
68922;DHT22;55959;51.244;5.724;2024-01-10T02:47:35;-0.60;57.40
68922;DHT22;55959;51.244;5.724;2024-01-10T02:50:03;-0.60;57.50
68922;DHT22;55959;51.244;5.724;2024-01-10T02:52:29;-0.60;57.60
68922;DHT22;55959;51.244;5.724;2024-01-10T02:54:55;-0.60;57.60
68922;DHT22;55959;51.244;5.724;2024-01-10T02:57:21;-0.60;57.70
68922;DHT22;55959;51.244;5.724;2024-01-10T02:59:47;-0.60;57.70
68922;DHT22;55959;51.244;5.724;2024-01-10T03:02:12;-0.70;57.70
68922;DHT22;55959;51.244;5.724;2024-01-10T03:04:40;-0.70;57.70
68922;DHT22;55959;51.244;5.724;2024-01-10T03:07:06;-0.70;57.70
68922;DHT22;55959;51.244;5.724;2024-01-10T03:09:31;-0.70;57.70
68922;DHT22;55959;51.244;5.724;2024-01-10T03:11:57;-0.70;57.80
68922;DHT22;55959;51.244;5.724;2024-01-10T03:14:23;-0.70;57.80
68922;DHT22;55959;51.244;5.724;2024-01-10T03:16:49;-0.80;57.80
68922;DHT22;55959;51.244;5.724;2024-01-10T03:19:15;-0.80;57.90
68922;DHT22;55959;51.244;5.724;2024-01-10T03:21:40;-0.80;57.90
68922;DHT22;55959;51.244;5.724;2024-01-10T03:24:07;-0.80;58.00
68922;DHT22;55959;51.244;5.724;2024-01-10T03:26:33;-0.80;58.00
68922;DHT22;55959;51.244;5.724;2024-01-10T03:28:59;-0.80;58.00
68922;DHT22;55959;51.244;5.724;2024-01-10T03:31:27;-0.80;58.00
68922;DHT22;55959;51.244;5.724;2024-01-10T03:33:53;-0.90;58.00
68922;DHT22;55959;51.244;5.724;2024-01-10T03:36:19;-0.80;58.10
68922;DHT22;55959;51.244;5.724;2024-01-10T03:38:45;-0.90;58.10
68922;DHT22;55959;51.244;5.724;2024-01-10T03:41:15;-0.90;58.10
68922;DHT22;55959;51.244;5.724;2024-01-10T03:43:45;-0.90;58.10
68922;DHT22;55959;51.244;5.724;2024-01-10T03:46:11;-0.90;58.10
68922;DHT22;55959;51.244;5.724;2024-01-10T03:48:37;-0.90;58.20
68922;DHT22;55959;51.244;5.724;2024-01-10T03:51:04;-0.90;58.20
68922;DHT22;55959;51.244;5.724;2024-01-10T03:53:30;-1.00;58.20
68922;DHT22;55959;51.244;5.724;2024-01-10T03:55:56;-0.90;58.20
68922;DHT22;55959;51.244;5.724;2024-01-10T03:58:23;-1.00;58.20
68922;DHT22;55959;51.244;5.724;2024-01-10T04:00:49;-1.00;58.20
68922;DHT22;55959;51.244;5.724;2024-01-10T04:03:14;-1.00;58.20
68922;DHT22;55959;51.244;5.724;2024-01-10T04:05:41;-1.00;58.30
68922;DHT22;55959;51.244;5.724;2024-01-10T04:08:07;-1.00;58.20
68922;DHT22;55959;51.244;5.724;2024-01-10T04:10:33;-1.00;58.20
68922;DHT22;55959;51.244;5.724;2024-01-10T04:12:58;-1.00;58.20
68922;DHT22;55959;51.244;5.724;2024-01-10T04:15:24;-1.10;58.20
68922;DHT22;55959;51.244;5.724;2024-01-10T04:17:50;-1.00;58.20
68922;DHT22;55959;51.244;5.724;2024-01-10T04:20:15;-1.00;58.10
68922;DHT22;55959;51.244;5.724;2024-01-10T04:22:41;-1.10;58.00
68922;DHT22;55959;51.244;5.724;2024-01-10T04:25:07;-1.00;58.10
68922;DHT22;55959;51.244;5.724;2024-01-10T04:27:33;-1.10;58.00
68922;DHT22;55959;51.244;5.724;2024-01-10T04:29:59;-1.10;58.00
68922;DHT22;55959;51.244;5.724;2024-01-10T04:32:25;-1.10;58.00
68922;DHT22;55959;51.244;5.724;2024-01-10T04:34:51;-1.10;58.00
68922;DHT22;55959;51.244;5.724;2024-01-10T04:37:17;-1.10;58.00
68922;DHT22;55959;51.244;5.724;2024-01-10T04:39:43;-1.10;57.90
68922;DHT22;55959;51.244;5.724;2024-01-10T04:42:10;-1.10;57.90
68922;DHT22;55959;51.244;5.724;2024-01-10T04:44:36;-1.10;57.90
68922;DHT22;55959;51.244;5.724;2024-01-10T04:47:03;-1.10;57.90
68922;DHT22;55959;51.244;5.724;2024-01-10T04:49:29;-1.10;58.00
68922;DHT22;55959;51.244;5.724;2024-01-10T04:51:55;-1.10;58.00
68922;DHT22;55959;51.244;5.724;2024-01-10T04:54:21;-1.10;58.00
68922;DHT22;55959;51.244;5.724;2024-01-10T04:56:47;-1.10;58.00
68922;DHT22;55959;51.244;5.724;2024-01-10T04:59:12;-1.10;58.10
68922;DHT22;55959;51.244;5.724;2024-01-10T05:01:38;-1.10;58.10
68922;DHT22;55959;51.244;5.724;2024-01-10T05:04:04;-1.10;58.10
68922;DHT22;55959;51.244;5.724;2024-01-10T05:06:30;-1.10;58.10
68922;DHT22;55959;51.244;5.724;2024-01-10T05:08:56;-1.10;58.10
68922;DHT22;55959;51.244;5.724;2024-01-10T05:11:24;-1.20;58.10
68922;DHT22;55959;51.244;5.724;2024-01-10T05:13:51;-1.20;58.20
68922;DHT22;55959;51.244;5.724;2024-01-10T05:16:17;-1.20;58.20
68922;DHT22;55959;51.244;5.724;2024-01-10T05:18:43;-1.20;58.20
68922;DHT22;55959;51.244;5.724;2024-01-10T05:21:09;-1.20;58.20
68922;DHT22;55959;51.244;5.724;2024-01-10T05:23:35;-1.20;58.20
68922;DHT22;55959;51.244;5.724;2024-01-10T05:26:04;-1.20;58.20
68922;DHT22;55959;51.244;5.724;2024-01-10T05:28:29;-1.20;58.20
68922;DHT22;55959;51.244;5.724;2024-01-10T05:30:55;-1.20;58.30
68922;DHT22;55959;51.244;5.724;2024-01-10T05:33:21;-1.20;58.30
68922;DHT22;55959;51.244;5.724;2024-01-10T05:35:47;-1.20;58.30
68922;DHT22;55959;51.244;5.724;2024-01-10T05:38:13;-1.20;58.40
68922;DHT22;55959;51.244;5.724;2024-01-10T05:40:38;-1.20;58.40
68922;DHT22;55959;51.244;5.724;2024-01-10T05:43:04;-1.20;58.50
68922;DHT22;55959;51.244;5.724;2024-01-10T05:45:30;-1.30;58.40
68922;DHT22;55959;51.244;5.724;2024-01-10T05:47:56;-1.30;58.50
68922;DHT22;55959;51.244;5.724;2024-01-10T05:50:22;-1.20;58.50
68922;DHT22;55959;51.244;5.724;2024-01-10T05:52:48;-1.30;58.50
68922;DHT22;55959;51.244;5.724;2024-01-10T05:55:13;-1.20;58.60
68922;DHT22;55959;51.244;5.724;2024-01-10T05:57:39;-1.20;58.60
68922;DHT22;55959;51.244;5.724;2024-01-10T06:00:06;-1.30;58.60
68922;DHT22;55959;51.244;5.724;2024-01-10T06:02:41;-1.30;58.60
68922;DHT22;55959;51.244;5.724;2024-01-10T06:05:08;-1.30;58.70
68922;DHT22;55959;51.244;5.724;2024-01-10T06:07:35;-1.30;58.70
68922;DHT22;55959;51.244;5.724;2024-01-10T06:10:02;-1.30;58.70
68922;DHT22;55959;51.244;5.724;2024-01-10T06:12:28;-1.30;58.80
68922;DHT22;55959;51.244;5.724;2024-01-10T06:14:54;-1.30;58.80
68922;DHT22;55959;51.244;5.724;2024-01-10T06:17:20;-1.30;58.80
68922;DHT22;55959;51.244;5.724;2024-01-10T06:19:46;-1.30;58.90
68922;DHT22;55959;51.244;5.724;2024-01-10T06:22:13;-1.30;58.90
68922;DHT22;55959;51.244;5.724;2024-01-10T06:24:39;-1.30;58.90
68922;DHT22;55959;51.244;5.724;2024-01-10T06:27:06;-1.30;58.90
68922;DHT22;55959;51.244;5.724;2024-01-10T06:29:32;-1.30;58.90
68922;DHT22;55959;51.244;5.724;2024-01-10T06:31:58;-1.30;58.90
68922;DHT22;55959;51.244;5.724;2024-01-10T06:34:26;-1.30;59.00
68922;DHT22;55959;51.244;5.724;2024-01-10T06:36:52;-1.30;59.00
68922;DHT22;55959;51.244;5.724;2024-01-10T06:39:18;-1.40;58.90
68922;DHT22;55959;51.244;5.724;2024-01-10T06:41:47;-1.40;58.90
68922;DHT22;55959;51.244;5.724;2024-01-10T06:44:13;-1.30;58.90
68922;DHT22;55959;51.244;5.724;2024-01-10T06:46:39;-1.40;58.90
68922;DHT22;55959;51.244;5.724;2024-01-10T06:49:04;-1.40;58.80
68922;DHT22;55959;51.244;5.724;2024-01-10T06:51:32;-1.30;58.90
68922;DHT22;55959;51.244;5.724;2024-01-10T06:53:58;-1.40;59.40
68922;DHT22;55959;51.244;5.724;2024-01-10T06:56:29;-1.40;58.80
68922;DHT22;55959;51.244;5.724;2024-01-10T06:58:57;-1.30;58.80
68922;DHT22;55959;51.244;5.724;2024-01-10T07:01:23;-1.40;58.80
68922;DHT22;55959;51.244;5.724;2024-01-10T07:03:49;-1.30;58.90
68922;DHT22;55959;51.244;5.724;2024-01-10T07:06:15;-1.30;58.90
68922;DHT22;55959;51.244;5.724;2024-01-10T07:08:41;-1.30;58.80
68922;DHT22;55959;51.244;5.724;2024-01-10T07:11:13;-1.40;58.80
68922;DHT22;55959;51.244;5.724;2024-01-10T07:13:40;-1.30;58.90
68922;DHT22;55959;51.244;5.724;2024-01-10T07:16:06;-1.30;58.90
68922;DHT22;55959;51.244;5.724;2024-01-10T07:18:33;-1.30;58.90
68922;DHT22;55959;51.244;5.724;2024-01-10T07:20:58;-1.30;58.90
68922;DHT22;55959;51.244;5.724;2024-01-10T07:23:25;-1.30;58.90
68922;DHT22;55959;51.244;5.724;2024-01-10T07:25:51;-1.30;58.90
68922;DHT22;55959;51.244;5.724;2024-01-10T07:28:17;-1.30;58.90
68922;DHT22;55959;51.244;5.724;2024-01-10T07:30:45;-1.30;58.90
68922;DHT22;55959;51.244;5.724;2024-01-10T07:33:11;-1.30;58.90
68922;DHT22;55959;51.244;5.724;2024-01-10T07:35:37;-1.30;58.90
68922;DHT22;55959;51.244;5.724;2024-01-10T07:38:04;-1.30;58.90
68922;DHT22;55959;51.244;5.724;2024-01-10T07:40:33;-1.30;58.90
68922;DHT22;55959;51.244;5.724;2024-01-10T07:42:59;-1.30;58.80
68922;DHT22;55959;51.244;5.724;2024-01-10T07:45:25;-1.30;58.80
68922;DHT22;55959;51.244;5.724;2024-01-10T07:47:51;-1.30;58.80
68922;DHT22;55959;51.244;5.724;2024-01-10T07:50:17;-1.30;58.80
68922;DHT22;55959;51.244;5.724;2024-01-10T07:52:45;-1.30;58.90
68922;DHT22;55959;51.244;5.724;2024-01-10T07:55:12;-1.30;58.80
68922;DHT22;55959;51.244;5.724;2024-01-10T07:57:38;-1.30;58.80
68922;DHT22;55959;51.244;5.724;2024-01-10T08:00:05;-1.20;58.90
68922;DHT22;55959;51.244;5.724;2024-01-10T08:02:38;-1.30;58.80
68922;DHT22;55959;51.244;5.724;2024-01-10T08:05:04;-1.20;58.90
68922;DHT22;55959;51.244;5.724;2024-01-10T08:07:31;-1.30;58.80
68922;DHT22;55959;51.244;5.724;2024-01-10T08:10:05;-1.30;58.80
68922;DHT22;55959;51.244;5.724;2024-01-10T08:12:32;-1.20;58.90
68922;DHT22;55959;51.244;5.724;2024-01-10T08:14:58;-1.20;58.90
68922;DHT22;55959;51.244;5.724;2024-01-10T08:17:23;-1.20;58.90
68922;DHT22;55959;51.244;5.724;2024-01-10T08:19:49;-1.20;58.90
68922;DHT22;55959;51.244;5.724;2024-01-10T08:22:15;-1.20;58.90
68922;DHT22;55959;51.244;5.724;2024-01-10T08:24:41;-1.20;58.90
68922;DHT22;55959;51.244;5.724;2024-01-10T08:27:07;-1.20;58.90
68922;DHT22;55959;51.244;5.724;2024-01-10T08:29:33;-1.20;58.90
68922;DHT22;55959;51.244;5.724;2024-01-10T08:31:59;-1.20;58.90
68922;DHT22;55959;51.244;5.724;2024-01-10T08:34:24;-1.20;58.90
68922;DHT22;55959;51.244;5.724;2024-01-10T08:36:51;-1.20;58.90
68922;DHT22;55959;51.244;5.724;2024-01-10T08:39:17;-1.20;58.80
68922;DHT22;55959;51.244;5.724;2024-01-10T08:41:44;-1.20;58.80
68922;DHT22;55959;51.244;5.724;2024-01-10T08:44:11;-1.10;58.90
68922;DHT22;55959;51.244;5.724;2024-01-10T08:46:36;-1.10;58.80
68922;DHT22;55959;51.244;5.724;2024-01-10T08:49:03;-1.10;58.80
68922;DHT22;55959;51.244;5.724;2024-01-10T08:51:28;-1.10;58.80
68922;DHT22;55959;51.244;5.724;2024-01-10T08:53:54;-1.10;58.80
68922;DHT22;55959;51.244;5.724;2024-01-10T08:56:22;-1.10;58.80
68922;DHT22;55959;51.244;5.724;2024-01-10T08:58:49;-1.10;58.80
68922;DHT22;55959;51.244;5.724;2024-01-10T09:01:15;-1.10;58.80
68922;DHT22;55959;51.244;5.724;2024-01-10T09:03:40;-1.00;58.80
68922;DHT22;55959;51.244;5.724;2024-01-10T09:06:06;-1.00;58.90
68922;DHT22;55959;51.244;5.724;2024-01-10T09:08:35;-1.00;58.90
68922;DHT22;55959;51.244;5.724;2024-01-10T09:11:02;-1.00;58.90
68922;DHT22;55959;51.244;5.724;2024-01-10T09:13:28;-1.00;58.90
68922;DHT22;55959;51.244;5.724;2024-01-10T09:15:54;-1.00;58.90
68922;DHT22;55959;51.244;5.724;2024-01-10T09:18:19;-0.90;58.90
68922;DHT22;55959;51.244;5.724;2024-01-10T09:20:45;-0.90;58.90
68922;DHT22;55959;51.244;5.724;2024-01-10T09:23:11;-0.90;58.80
68922;DHT22;55959;51.244;5.724;2024-01-10T09:25:37;-0.90;58.90
68922;DHT22;55959;51.244;5.724;2024-01-10T09:28:06;-0.90;58.80
68922;DHT22;55959;51.244;5.724;2024-01-10T09:30:33;-0.80;58.80
68922;DHT22;55959;51.244;5.724;2024-01-10T09:32:59;-0.80;58.80
68922;DHT22;55959;51.244;5.724;2024-01-10T09:35:25;-0.80;58.80
68922;DHT22;55959;51.244;5.724;2024-01-10T09:37:51;-0.80;58.70
68922;DHT22;55959;51.244;5.724;2024-01-10T09:40:19;-0.80;58.70
68922;DHT22;55959;51.244;5.724;2024-01-10T09:42:49;-0.70;58.70
68922;DHT22;55959;51.244;5.724;2024-01-10T09:45:17;-0.70;58.70
68922;DHT22;55959;51.244;5.724;2024-01-10T09:47:48;-0.70;58.70
68922;DHT22;55959;51.244;5.724;2024-01-10T09:50:15;-0.70;58.70
68922;DHT22;55959;51.244;5.724;2024-01-10T09:52:53;-0.60;59.40
68922;DHT22;55959;51.244;5.724;2024-01-10T09:55:26;-0.60;58.80
68922;DHT22;55959;51.244;5.724;2024-01-10T09:57:56;-0.60;58.90
68922;DHT22;55959;51.244;5.724;2024-01-10T10:00:22;-0.60;58.90
68922;DHT22;55959;51.244;5.724;2024-01-10T10:02:50;-0.50;58.90
68922;DHT22;55959;51.244;5.724;2024-01-10T10:05:17;-0.50;58.80
68922;DHT22;55959;51.244;5.724;2024-01-10T10:07:47;-0.50;58.80
68922;DHT22;55959;51.244;5.724;2024-01-10T10:10:14;-0.50;58.80
68922;DHT22;55959;51.244;5.724;2024-01-10T10:12:48;-0.40;58.80
68922;DHT22;55959;51.244;5.724;2024-01-10T10:15:17;-0.40;58.70
68922;DHT22;55959;51.244;5.724;2024-01-10T10:17:46;-0.30;58.80
68922;DHT22;55959;51.244;5.724;2024-01-10T10:25:22;-0.20;58.80
68922;DHT22;55959;51.244;5.724;2024-01-10T10:27:51;-0.20;58.80
68922;DHT22;55959;51.244;5.724;2024-01-10T10:30:18;-0.20;58.80
68922;DHT22;55959;51.244;5.724;2024-01-10T10:32:43;-0.10;58.90
68922;DHT22;55959;51.244;5.724;2024-01-10T10:35:09;-0.10;58.90
68922;DHT22;55959;51.244;5.724;2024-01-10T10:37:35;0.00;59.00
68922;DHT22;55959;51.244;5.724;2024-01-10T10:40:01;0.00;59.00
68922;DHT22;55959;51.244;5.724;2024-01-10T10:42:28;0.00;59.00
68922;DHT22;55959;51.244;5.724;2024-01-10T10:45:00;0.10;59.00
68922;DHT22;55959;51.244;5.724;2024-01-10T10:47:31;0.10;59.00
68922;DHT22;55959;51.244;5.724;2024-01-10T10:50:03;0.20;58.90
68922;DHT22;55959;51.244;5.724;2024-01-10T10:52:30;0.20;58.90
68922;DHT22;55959;51.244;5.724;2024-01-10T10:54:58;0.30;58.80
68922;DHT22;55959;51.244;5.724;2024-01-10T10:57:27;0.30;58.80
68922;DHT22;55959;51.244;5.724;2024-01-10T10:59:55;0.30;58.80
68922;DHT22;55959;51.244;5.724;2024-01-10T11:02:22;0.40;58.80
68922;DHT22;55959;51.244;5.724;2024-01-10T11:04:53;0.40;58.60
68922;DHT22;55959;51.244;5.724;2024-01-10T11:07:20;0.50;58.60
68922;DHT22;55959;51.244;5.724;2024-01-10T11:09:47;0.50;58.50
68922;DHT22;55959;51.244;5.724;2024-01-10T11:15:33;0.70;58.50
68922;DHT22;55959;51.244;5.724;2024-01-10T11:18:33;0.70;58.40
68922;DHT22;55959;51.244;5.724;2024-01-10T11:24:30;0.70;58.30
68922;DHT22;55959;51.244;5.724;2024-01-10T11:27:12;0.80;58.20
68922;DHT22;55959;51.244;5.724;2024-01-10T11:29:40;0.90;58.30
68922;DHT22;55959;51.244;5.724;2024-01-10T11:32:16;0.90;58.20
68922;DHT22;55959;51.244;5.724;2024-01-10T11:35:18;1.00;58.10
68922;DHT22;55959;51.244;5.724;2024-01-10T11:37:45;1.00;58.00
68922;DHT22;55959;51.244;5.724;2024-01-10T11:40:12;1.10;57.90
68922;DHT22;55959;51.244;5.724;2024-01-10T11:42:45;1.10;57.80
68922;DHT22;55959;51.244;5.724;2024-01-10T11:47:56;1.30;57.90
68922;DHT22;55959;51.244;5.724;2024-01-10T11:50:23;1.30;57.80
68922;DHT22;55959;51.244;5.724;2024-01-10T11:52:53;1.30;57.70
68922;DHT22;55959;51.244;5.724;2024-01-10T11:55:47;1.40;57.70
68922;DHT22;55959;51.244;5.724;2024-01-10T11:58:17;1.50;57.70
68922;DHT22;55959;51.244;5.724;2024-01-10T12:00:43;1.50;57.60
68922;DHT22;55959;51.244;5.724;2024-01-10T12:03:11;1.60;57.60
68922;DHT22;55959;51.244;5.724;2024-01-10T12:05:38;1.60;57.50
68922;DHT22;55959;51.244;5.724;2024-01-10T12:08:07;1.70;57.40
68922;DHT22;55959;51.244;5.724;2024-01-10T12:10:33;1.70;57.30
68922;DHT22;55959;51.244;5.724;2024-01-10T12:13:03;1.80;57.20
68922;DHT22;55959;51.244;5.724;2024-01-10T12:15:29;1.80;57.10
68922;DHT22;55959;51.244;5.724;2024-01-10T12:17:55;1.90;57.00
68922;DHT22;55959;51.244;5.724;2024-01-10T12:20:21;1.90;56.90
68922;DHT22;55959;51.244;5.724;2024-01-10T12:22:47;2.00;56.80
68922;DHT22;55959;51.244;5.724;2024-01-10T12:25:13;2.10;56.70
68922;DHT22;55959;51.244;5.724;2024-01-10T12:27:40;2.10;56.70
68922;DHT22;55959;51.244;5.724;2024-01-10T12:30:06;2.20;56.60
68922;DHT22;55959;51.244;5.724;2024-01-10T12:32:33;2.20;56.60
68922;DHT22;55959;51.244;5.724;2024-01-10T12:35:03;2.30;56.60
68922;DHT22;55959;51.244;5.724;2024-01-10T12:37:30;2.30;56.50
68922;DHT22;55959;51.244;5.724;2024-01-10T12:39:56;2.40;56.50
68922;DHT22;55959;51.244;5.724;2024-01-10T12:42:23;2.40;56.40
68922;DHT22;55959;51.244;5.724;2024-01-10T12:44:49;2.50;56.20
68922;DHT22;55959;51.244;5.724;2024-01-10T12:47:21;2.50;56.20
68922;DHT22;55959;51.244;5.724;2024-01-10T12:49:49;2.60;56.00
68922;DHT22;55959;51.244;5.724;2024-01-10T12:52:15;2.60;55.90
68922;DHT22;55959;51.244;5.724;2024-01-10T12:54:41;2.60;55.80
68922;DHT22;55959;51.244;5.724;2024-01-10T12:57:07;2.70;55.80
68922;DHT22;55959;51.244;5.724;2024-01-10T12:59:33;2.70;55.70
68922;DHT22;55959;51.244;5.724;2024-01-10T13:01:59;2.80;55.70
68922;DHT22;55959;51.244;5.724;2024-01-10T13:04:25;2.80;55.70
68922;DHT22;55959;51.244;5.724;2024-01-10T13:06:52;2.90;55.70
68922;DHT22;55959;51.244;5.724;2024-01-10T13:09:17;2.90;55.60
68922;DHT22;55959;51.244;5.724;2024-01-10T13:11:43;2.90;55.50
68922;DHT22;55959;51.244;5.724;2024-01-10T13:14:11;3.00;55.50
68922;DHT22;55959;51.244;5.724;2024-01-10T13:16:37;3.00;55.40
68922;DHT22;55959;51.244;5.724;2024-01-10T13:19:03;3.10;55.40
68922;DHT22;55959;51.244;5.724;2024-01-10T13:21:29;3.10;55.30
68922;DHT22;55959;51.244;5.724;2024-01-10T13:23:55;3.20;55.30
68922;DHT22;55959;51.244;5.724;2024-01-10T13:26:20;3.20;55.30
68922;DHT22;55959;51.244;5.724;2024-01-10T13:28:46;3.30;55.30
68922;DHT22;55959;51.244;5.724;2024-01-10T13:31:12;3.30;55.20
68922;DHT22;55959;51.244;5.724;2024-01-10T13:33:38;3.30;55.10
68922;DHT22;55959;51.244;5.724;2024-01-10T13:36:04;3.40;55.10
68922;DHT22;55959;51.244;5.724;2024-01-10T13:38:30;3.40;55.00
68922;DHT22;55959;51.244;5.724;2024-01-10T13:40:57;3.40;54.90
68922;DHT22;55959;51.244;5.724;2024-01-10T13:43:22;3.40;54.70
68922;DHT22;55959;51.244;5.724;2024-01-10T13:45:48;3.50;54.70
68922;DHT22;55959;51.244;5.724;2024-01-10T13:48:14;3.50;54.50
68922;DHT22;55959;51.244;5.724;2024-01-10T13:50:41;3.50;54.40
68922;DHT22;55959;51.244;5.724;2024-01-10T13:53:07;3.50;54.30
68922;DHT22;55959;51.244;5.724;2024-01-10T13:55:32;3.60;54.20
68922;DHT22;55959;51.244;5.724;2024-01-10T13:58:00;3.60;54.10
68922;DHT22;55959;51.244;5.724;2024-01-10T14:00:26;3.60;54.00
68922;DHT22;55959;51.244;5.724;2024-01-10T14:02:52;3.60;54.00
68922;DHT22;55959;51.244;5.724;2024-01-10T14:05:24;3.60;53.90
68922;DHT22;55959;51.244;5.724;2024-01-10T14:07:51;3.60;53.80
68922;DHT22;55959;51.244;5.724;2024-01-10T14:10:16;3.60;53.80
68922;DHT22;55959;51.244;5.724;2024-01-10T14:12:42;3.60;53.80
68922;DHT22;55959;51.244;5.724;2024-01-10T14:15:08;3.60;53.70
68922;DHT22;55959;51.244;5.724;2024-01-10T14:17:34;3.60;53.60
68922;DHT22;55959;51.244;5.724;2024-01-10T14:20:00;3.60;53.50
68922;DHT22;55959;51.244;5.724;2024-01-10T14:22:26;3.60;53.40
68922;DHT22;55959;51.244;5.724;2024-01-10T14:24:52;3.60;53.40
68922;DHT22;55959;51.244;5.724;2024-01-10T14:27:20;3.60;53.20
68922;DHT22;55959;51.244;5.724;2024-01-10T14:29:45;3.60;53.10
68922;DHT22;55959;51.244;5.724;2024-01-10T14:32:12;3.60;53.00
68922;DHT22;55959;51.244;5.724;2024-01-10T14:34:41;3.60;53.00
68922;DHT22;55959;51.244;5.724;2024-01-10T14:37:07;3.60;53.00
68922;DHT22;55959;51.244;5.724;2024-01-10T14:39:36;3.60;53.60
68922;DHT22;55959;51.244;5.724;2024-01-10T14:42:08;3.60;52.90
68922;DHT22;55959;51.244;5.724;2024-01-10T14:44:35;3.60;52.90
68922;DHT22;55959;51.244;5.724;2024-01-10T14:47:01;3.60;52.90
68922;DHT22;55959;51.244;5.724;2024-01-10T14:49:26;3.60;52.90
68922;DHT22;55959;51.244;5.724;2024-01-10T14:51:52;3.60;52.90
68922;DHT22;55959;51.244;5.724;2024-01-10T14:54:18;3.50;52.90
68922;DHT22;55959;51.244;5.724;2024-01-10T14:56:45;3.50;53.00
68922;DHT22;55959;51.244;5.724;2024-01-10T14:59:14;3.50;52.90
68922;DHT22;55959;51.244;5.724;2024-01-10T15:01:44;3.60;53.10
68922;DHT22;55959;51.244;5.724;2024-01-10T15:04:11;3.60;53.20
68922;DHT22;55959;51.244;5.724;2024-01-10T15:06:45;3.60;53.20
68922;DHT22;55959;51.244;5.724;2024-01-10T15:09:12;3.60;53.20
68922;DHT22;55959;51.244;5.724;2024-01-10T15:11:39;3.60;53.00
68922;DHT22;55959;51.244;5.724;2024-01-10T15:14:07;3.60;53.00
68922;DHT22;55959;51.244;5.724;2024-01-10T15:16:35;3.60;52.90
68922;DHT22;55959;51.244;5.724;2024-01-10T15:19:01;3.60;52.80
68922;DHT22;55959;51.244;5.724;2024-01-10T15:21:28;3.60;52.80
68922;DHT22;55959;51.244;5.724;2024-01-10T15:23:54;3.60;52.70
68922;DHT22;55959;51.244;5.724;2024-01-10T15:26:20;3.60;52.70
68922;DHT22;55959;51.244;5.724;2024-01-10T15:28:48;3.60;52.70
68922;DHT22;55959;51.244;5.724;2024-01-10T15:31:20;3.60;52.60
68922;DHT22;55959;51.244;5.724;2024-01-10T15:33:47;3.60;52.50
68922;DHT22;55959;51.244;5.724;2024-01-10T15:36:14;3.60;52.40
68922;DHT22;55959;51.244;5.724;2024-01-10T15:38:40;3.60;52.40
68922;DHT22;55959;51.244;5.724;2024-01-10T15:41:07;3.60;52.30
68922;DHT22;55959;51.244;5.724;2024-01-10T15:43:34;3.60;52.30
68922;DHT22;55959;51.244;5.724;2024-01-10T15:46:00;3.60;52.30
68922;DHT22;55959;51.244;5.724;2024-01-10T15:48:26;3.60;52.20
68922;DHT22;55959;51.244;5.724;2024-01-10T15:50:58;3.60;52.30